sensor_id;sensor_type;location;lat;lon;timestamp;temperature;humidity
9209;DHT22;4639;48.862;9.188;2022-11-15T00:01:09;11.20;99.90
9209;DHT22;4639;48.862;9.188;2022-11-15T00:03:35;11.20;99.90
9209;DHT22;4639;48.862;9.188;2022-11-15T00:06:05;11.20;99.90
9209;DHT22;4639;48.862;9.188;2022-11-15T00:08:31;11.30;99.90
9209;DHT22;4639;48.862;9.188;2022-11-15T00:10:58;11.30;99.90
9209;DHT22;4639;48.862;9.188;2022-11-15T00:13:24;11.30;99.90
9209;DHT22;4639;48.862;9.188;2022-11-15T00:15:50;11.30;99.90
9209;DHT22;4639;48.862;9.188;2022-11-15T00:18:17;11.40;99.90
9209;DHT22;4639;48.862;9.188;2022-11-15T00:20:43;11.40;99.90
9209;DHT22;4639;48.862;9.188;2022-11-15T00:23:09;11.40;99.90
9209;DHT22;4639;48.862;9.188;2022-11-15T00:25:34;11.40;99.90
9209;DHT22;4639;48.862;9.188;2022-11-15T00:28:01;11.40;99.90
9209;DHT22;4639;48.862;9.188;2022-11-15T00:30:27;11.40;99.90
9209;DHT22;4639;48.862;9.188;2022-11-15T00:32:53;11.40;99.90
9209;DHT22;4639;48.862;9.188;2022-11-15T00:35:19;11.40;99.90
9209;DHT22;4639;48.862;9.188;2022-11-15T00:37:46;11.50;99.90
9209;DHT22;4639;48.862;9.188;2022-11-15T00:40:12;11.40;99.90
9209;DHT22;4639;48.862;9.188;2022-11-15T00:42:38;11.40;99.90
9209;DHT22;4639;48.862;9.188;2022-11-15T00:45:04;11.30;99.90
9209;DHT22;4639;48.862;9.188;2022-11-15T00:47:30;11.30;99.90
9209;DHT22;4639;48.862;9.188;2022-11-15T00:49:56;11.40;99.90
9209;DHT22;4639;48.862;9.188;2022-11-15T00:52:21;11.40;99.90
9209;DHT22;4639;48.862;9.188;2022-11-15T00:54:47;11.30;99.90
9209;DHT22;4639;48.862;9.188;2022-11-15T00:57:12;11.20;99.90
9209;DHT22;4639;48.862;9.188;2022-11-15T00:59:38;11.30;99.90
9209;DHT22;4639;48.862;9.188;2022-11-15T01:02:03;11.30;99.90
9209;DHT22;4639;48.862;9.188;2022-11-15T01:04:29;11.30;99.90
9209;DHT22;4639;48.862;9.188;2022-11-15T01:06:55;11.20;99.90
9209;DHT22;4639;48.862;9.188;2022-11-15T01:09:20;11.20;99.90
9209;DHT22;4639;48.862;9.188;2022-11-15T01:11:46;11.10;99.90
9209;DHT22;4639;48.862;9.188;2022-11-15T01:14:11;10.90;99.90
9209;DHT22;4639;48.862;9.188;2022-11-15T01:16:37;10.80;99.90
9209;DHT22;4639;48.862;9.188;2022-11-15T01:19:03;10.80;99.90
9209;DHT22;4639;48.862;9.188;2022-11-15T01:21:28;10.80;99.90
9209;DHT22;4639;48.862;9.188;2022-11-15T01:23:55;10.80;99.90
9209;DHT22;4639;48.862;9.188;2022-11-15T01:26:22;10.80;99.90
9209;DHT22;4639;48.862;9.188;2022-11-15T01:28:48;10.80;99.90
9209;DHT22;4639;48.862;9.188;2022-11-15T01:31:19;10.70;99.90
9209;DHT22;4639;48.862;9.188;2022-11-15T01:33:45;10.70;99.90
9209;DHT22;4639;48.862;9.188;2022-11-15T01:36:14;10.70;99.90
9209;DHT22;4639;48.862;9.188;2022-11-15T01:38:40;10.60;99.90
9209;DHT22;4639;48.862;9.188;2022-11-15T01:41:05;10.60;99.90
9209;DHT22;4639;48.862;9.188;2022-11-15T01:43:34;10.60;99.90
9209;DHT22;4639;48.862;9.188;2022-11-15T01:48:41;10.60;99.90
9209;DHT22;4639;48.862;9.188;2022-11-15T01:51:08;10.60;99.90
9209;DHT22;4639;48.862;9.188;2022-11-15T01:53:38;10.70;99.90
9209;DHT22;4639;48.862;9.188;2022-11-15T01:56:06;10.70;99.90
9209;DHT22;4639;48.862;9.188;2022-11-15T01:58:33;10.70;99.90
9209;DHT22;4639;48.862;9.188;2022-11-15T02:00:59;10.60;99.90
9209;DHT22;4639;48.862;9.188;2022-11-15T02:03:33;10.60;99.90
9209;DHT22;4639;48.862;9.188;2022-11-15T02:06:02;10.60;99.90
9209;DHT22;4639;48.862;9.188;2022-11-15T02:08:29;10.60;99.90
9209;DHT22;4639;48.862;9.188;2022-11-15T02:10:54;10.60;99.90
9209;DHT22;4639;48.862;9.188;2022-11-15T02:13:20;10.60;99.90
9209;DHT22;4639;48.862;9.188;2022-11-15T02:18:29;10.70;99.90
9209;DHT22;4639;48.862;9.188;2022-11-15T02:21:07;10.80;99.90
9209;DHT22;4639;48.862;9.188;2022-11-15T02:26:43;10.90;99.90
9209;DHT22;4639;48.862;9.188;2022-11-15T02:42:36;10.90;99.90
9209;DHT22;4639;48.862;9.188;2022-11-15T02:45:29;10.90;99.90
9209;DHT22;4639;48.862;9.188;2022-11-15T02:47:57;10.90;99.90
9209;DHT22;4639;48.862;9.188;2022-11-15T02:50:29;11.00;99.90
9209;DHT22;4639;48.862;9.188;2022-11-15T02:52:57;10.90;99.90
9209;DHT22;4639;48.862;9.188;2022-11-15T02:55:37;10.90;99.90
9209;DHT22;4639;48.862;9.188;2022-11-15T03:08:45;10.80;99.90
9209;DHT22;4639;48.862;9.188;2022-11-15T03:11:20;10.80;99.90
9209;DHT22;4639;48.862;9.188;2022-11-15T03:13:56;10.80;99.90
9209;DHT22;4639;48.862;9.188;2022-11-15T03:16:41;10.80;99.90
9209;DHT22;4639;48.862;9.188;2022-11-15T03:19:25;10.70;99.90
9209;DHT22;4639;48.862;9.188;2022-11-15T03:21:55;10.70;99.90
9209;DHT22;4639;48.862;9.188;2022-11-15T03:24:23;10.50;99.90
9209;DHT22;4639;48.862;9.188;2022-11-15T03:26:51;10.40;99.90
9209;DHT22;4639;48.862;9.188;2022-11-15T03:29:22;10.30;99.90
9209;DHT22;4639;48.862;9.188;2022-11-15T03:31:55;10.10;99.90
9209;DHT22;4639;48.862;9.188;2022-11-15T03:34:30;10.00;99.90
9209;DHT22;4639;48.862;9.188;2022-11-15T03:36:56;9.90;99.90
9209;DHT22;4639;48.862;9.188;2022-11-15T03:39:23;9.80;99.90
9209;DHT22;4639;48.862;9.188;2022-11-15T03:44:40;9.80;99.90
9209;DHT22;4639;48.862;9.188;2022-11-15T03:47:14;9.70;99.90
9209;DHT22;4639;48.862;9.188;2022-11-15T03:49:50;9.70;99.90
9209;DHT22;4639;48.862;9.188;2022-11-15T03:52:21;9.70;99.90
9209;DHT22;4639;48.862;9.188;2022-11-15T03:54:49;9.50;99.90
9209;DHT22;4639;48.862;9.188;2022-11-15T03:57:15;9.50;99.90
9209;DHT22;4639;48.862;9.188;2022-11-15T03:59:40;9.40;99.90
9209;DHT22;4639;48.862;9.188;2022-11-15T04:02:06;9.40;99.90
9209;DHT22;4639;48.862;9.188;2022-11-15T04:04:31;9.50;99.90
9209;DHT22;4639;48.862;9.188;2022-11-15T04:06:57;9.50;99.90
9209;DHT22;4639;48.862;9.188;2022-11-15T04:09:22;9.50;99.90
9209;DHT22;4639;48.862;9.188;2022-11-15T04:11:48;9.40;99.90
9209;DHT22;4639;48.862;9.188;2022-11-15T04:14:14;9.40;99.90
9209;DHT22;4639;48.862;9.188;2022-11-15T04:16:39;9.40;99.90
9209;DHT22;4639;48.862;9.188;2022-11-15T04:19:05;9.50;99.90
9209;DHT22;4639;48.862;9.188;2022-11-15T04:21:49;9.50;99.90
9209;DHT22;4639;48.862;9.188;2022-11-15T04:24:33;9.50;99.90
9209;DHT22;4639;48.862;9.188;2022-11-15T04:26:59;9.40;99.90
9209;DHT22;4639;48.862;9.188;2022-11-15T04:29:25;9.40;99.90
9209;DHT22;4639;48.862;9.188;2022-11-15T04:31:59;9.40;99.90
9209;DHT22;4639;48.862;9.188;2022-11-15T04:34:25;9.40;99.90
9209;DHT22;4639;48.862;9.188;2022-11-15T04:36:50;9.50;99.90
9209;DHT22;4639;48.862;9.188;2022-11-15T04:39:35;9.50;99.90
9209;DHT22;4639;48.862;9.188;2022-11-15T04:42:00;9.50;99.90
9209;DHT22;4639;48.862;9.188;2022-11-15T04:44:26;9.60;99.90
9209;DHT22;4639;48.862;9.188;2022-11-15T04:46:51;9.60;99.90
9209;DHT22;4639;48.862;9.188;2022-11-15T04:49:17;9.70;99.90
9209;DHT22;4639;48.862;9.188;2022-11-15T04:51:43;9.60;99.90
9209;DHT22;4639;48.862;9.188;2022-11-15T04:54:09;9.50;99.90
9209;DHT22;4639;48.862;9.188;2022-11-15T04:56:34;9.50;99.90
9209;DHT22;4639;48.862;9.188;2022-11-15T04:59:00;9.50;99.90
9209;DHT22;4639;48.862;9.188;2022-11-15T05:01:25;9.60;99.90
9209;DHT22;4639;48.862;9.188;2022-11-15T05:03:51;9.70;99.90
9209;DHT22;4639;48.862;9.188;2022-11-15T05:06:40;9.60;99.90
9209;DHT22;4639;48.862;9.188;2022-11-15T05:09:05;9.60;99.90
9209;DHT22;4639;48.862;9.188;2022-11-15T05:11:31;9.60;99.90
9209;DHT22;4639;48.862;9.188;2022-11-15T05:13:57;9.60;99.90
9209;DHT22;4639;48.862;9.188;2022-11-15T05:16:22;9.70;99.90
9209;DHT22;4639;48.862;9.188;2022-11-15T05:18:53;9.70;99.90
9209;DHT22;4639;48.862;9.188;2022-11-15T05:21:19;9.80;99.90
9209;DHT22;4639;48.862;9.188;2022-11-15T05:23:45;9.80;99.90
9209;DHT22;4639;48.862;9.188;2022-11-15T05:26:11;9.80;99.90
9209;DHT22;4639;48.862;9.188;2022-11-15T05:28:37;9.80;99.90
9209;DHT22;4639;48.862;9.188;2022-11-15T05:31:11;9.80;99.90
9209;DHT22;4639;48.862;9.188;2022-11-15T05:33:38;9.80;99.90
9209;DHT22;4639;48.862;9.188;2022-11-15T05:38:43;9.80;99.90
9209;DHT22;4639;48.862;9.188;2022-11-15T05:41:09;9.80;99.90
9209;DHT22;4639;48.862;9.188;2022-11-15T05:43:36;9.70;99.90
9209;DHT22;4639;48.862;9.188;2022-11-15T05:46:03;9.70;99.90
9209;DHT22;4639;48.862;9.188;2022-11-15T05:48:30;9.60;99.90
9209;DHT22;4639;48.862;9.188;2022-11-15T05:50:55;9.60;99.90
9209;DHT22;4639;48.862;9.188;2022-11-15T05:53:23;9.50;99.90
9209;DHT22;4639;48.862;9.188;2022-11-15T05:55:50;9.40;99.90
9209;DHT22;4639;48.862;9.188;2022-11-15T05:58:16;9.40;99.90
9209;DHT22;4639;48.862;9.188;2022-11-15T06:00:42;9.40;99.90
9209;DHT22;4639;48.862;9.188;2022-11-15T06:03:08;9.30;99.90
9209;DHT22;4639;48.862;9.188;2022-11-15T06:05:34;9.30;99.90
9209;DHT22;4639;48.862;9.188;2022-11-15T06:08:00;9.20;99.90
9209;DHT22;4639;48.862;9.188;2022-11-15T06:10:26;9.10;99.90
9209;DHT22;4639;48.862;9.188;2022-11-15T06:13:02;9.10;99.90
9209;DHT22;4639;48.862;9.188;2022-11-15T06:15:28;9.00;99.90
9209;DHT22;4639;48.862;9.188;2022-11-15T06:17:57;9.10;99.90
9209;DHT22;4639;48.862;9.188;2022-11-15T06:20:26;9.10;99.90
9209;DHT22;4639;48.862;9.188;2022-11-15T06:23:03;9.20;99.90
9209;DHT22;4639;48.862;9.188;2022-11-15T06:25:30;9.30;99.90
9209;DHT22;4639;48.862;9.188;2022-11-15T06:27:57;9.30;99.90
9209;DHT22;4639;48.862;9.188;2022-11-15T06:30:24;9.30;99.90
9209;DHT22;4639;48.862;9.188;2022-11-15T06:32:50;9.30;99.90
9209;DHT22;4639;48.862;9.188;2022-11-15T06:35:16;9.30;99.90
9209;DHT22;4639;48.862;9.188;2022-11-15T06:37:42;9.30;99.90
9209;DHT22;4639;48.862;9.188;2022-11-15T06:40:09;9.30;99.90
9209;DHT22;4639;48.862;9.188;2022-11-15T06:42:34;9.30;99.90
9209;DHT22;4639;48.862;9.188;2022-11-15T06:45:00;9.40;99.90
9209;DHT22;4639;48.862;9.188;2022-11-15T06:47:26;9.40;99.90
9209;DHT22;4639;48.862;9.188;2022-11-15T06:49:52;9.50;99.90
9209;DHT22;4639;48.862;9.188;2022-11-15T06:52:17;9.60;99.90
9209;DHT22;4639;48.862;9.188;2022-11-15T06:54:47;9.70;99.90
9209;DHT22;4639;48.862;9.188;2022-11-15T06:57:12;9.70;99.90
9209;DHT22;4639;48.862;9.188;2022-11-15T06:59:38;9.80;99.90
9209;DHT22;4639;48.862;9.188;2022-11-15T07:02:03;9.80;99.90
9209;DHT22;4639;48.862;9.188;2022-11-15T07:04:29;9.80;99.90
9209;DHT22;4639;48.862;9.188;2022-11-15T07:06:55;10.00;99.90
9209;DHT22;4639;48.862;9.188;2022-11-15T07:09:20;10.10;99.90
9209;DHT22;4639;48.862;9.188;2022-11-15T07:11:46;10.20;99.90
9209;DHT22;4639;48.862;9.188;2022-11-15T07:14:12;10.20;99.90
9209;DHT22;4639;48.862;9.188;2022-11-15T07:16:38;10.30;99.90
9209;DHT22;4639;48.862;9.188;2022-11-15T07:19:03;10.30;99.90
9209;DHT22;4639;48.862;9.188;2022-11-15T07:21:29;10.40;99.90
9209;DHT22;4639;48.862;9.188;2022-11-15T07:23:54;10.30;99.90
9209;DHT22;4639;48.862;9.188;2022-11-15T07:26:20;10.40;99.90
9209;DHT22;4639;48.862;9.188;2022-11-15T07:28:46;10.40;99.90
9209;DHT22;4639;48.862;9.188;2022-11-15T07:31:11;10.50;99.90
9209;DHT22;4639;48.862;9.188;2022-11-15T07:33:37;10.60;99.90
9209;DHT22;4639;48.862;9.188;2022-11-15T07:36:04;10.80;99.90
9209;DHT22;4639;48.862;9.188;2022-11-15T07:38:31;10.90;99.90
9209;DHT22;4639;48.862;9.188;2022-11-15T07:41:02;11.00;99.90
9209;DHT22;4639;48.862;9.188;2022-11-15T07:43:28;11.10;99.90
9209;DHT22;4639;48.862;9.188;2022-11-15T07:45:55;11.20;99.90
9209;DHT22;4639;48.862;9.188;2022-11-15T07:48:21;11.30;99.90
9209;DHT22;4639;48.862;9.188;2022-11-15T07:50:47;11.60;99.90
9209;DHT22;4639;48.862;9.188;2022-11-15T07:53:12;11.80;99.90
9209;DHT22;4639;48.862;9.188;2022-11-15T07:55:40;11.80;99.90
9209;DHT22;4639;48.862;9.188;2022-11-15T07:58:08;11.90;99.90
9209;DHT22;4639;48.862;9.188;2022-11-15T08:00:35;11.90;99.90
9209;DHT22;4639;48.862;9.188;2022-11-15T08:03:13;11.90;99.90
9209;DHT22;4639;48.862;9.188;2022-11-15T08:05:40;11.90;99.90
9209;DHT22;4639;48.862;9.188;2022-11-15T08:08:07;11.90;99.90
9209;DHT22;4639;48.862;9.188;2022-11-15T08:10:33;12.00;99.90
9209;DHT22;4639;48.862;9.188;2022-11-15T08:13:04;12.20;99.90
9209;DHT22;4639;48.862;9.188;2022-11-15T08:15:31;12.60;99.90
9209;DHT22;4639;48.862;9.188;2022-11-15T08:17:58;12.60;99.90
9209;DHT22;4639;48.862;9.188;2022-11-15T08:20:25;12.50;99.90
9209;DHT22;4639;48.862;9.188;2022-11-15T08:22:51;12.40;99.90
9209;DHT22;4639;48.862;9.188;2022-11-15T08:25:17;12.40;99.90
9209;DHT22;4639;48.862;9.188;2022-11-15T08:27:43;12.40;99.90
9209;DHT22;4639;48.862;9.188;2022-11-15T08:30:08;12.30;99.90
9209;DHT22;4639;48.862;9.188;2022-11-15T08:32:35;12.30;99.90
9209;DHT22;4639;48.862;9.188;2022-11-15T08:35:00;12.40;99.90
9209;DHT22;4639;48.862;9.188;2022-11-15T08:37:26;12.40;99.90
9209;DHT22;4639;48.862;9.188;2022-11-15T08:39:51;12.50;99.90
9209;DHT22;4639;48.862;9.188;2022-11-15T08:42:17;12.70;99.90
9209;DHT22;4639;48.862;9.188;2022-11-15T08:44:43;12.80;99.90
9209;DHT22;4639;48.862;9.188;2022-11-15T08:47:11;12.90;99.90
9209;DHT22;4639;48.862;9.188;2022-11-15T08:49:38;13.00;99.90
9209;DHT22;4639;48.862;9.188;2022-11-15T08:52:03;13.20;99.90
9209;DHT22;4639;48.862;9.188;2022-11-15T08:54:29;13.20;99.90
9209;DHT22;4639;48.862;9.188;2022-11-15T08:56:54;13.50;99.90
9209;DHT22;4639;48.862;9.188;2022-11-15T08:59:20;13.70;99.90
9209;DHT22;4639;48.862;9.188;2022-11-15T09:01:45;13.80;99.90
9209;DHT22;4639;48.862;9.188;2022-11-15T09:04:11;14.10;99.90
9209;DHT22;4639;48.862;9.188;2022-11-15T09:06:37;14.30;99.90
9209;DHT22;4639;48.862;9.188;2022-11-15T09:09:02;14.50;99.90
9209;DHT22;4639;48.862;9.188;2022-11-15T09:11:28;14.60;99.90
9209;DHT22;4639;48.862;9.188;2022-11-15T09:13:54;14.60;99.90
9209;DHT22;4639;48.862;9.188;2022-11-15T09:16:19;14.40;99.90
9209;DHT22;4639;48.862;9.188;2022-11-15T09:18:45;14.20;99.90
9209;DHT22;4639;48.862;9.188;2022-11-15T09:21:11;14.00;99.90
9209;DHT22;4639;48.862;9.188;2022-11-15T09:23:37;13.90;99.90
9209;DHT22;4639;48.862;9.188;2022-11-15T09:26:04;13.90;99.90
9209;DHT22;4639;48.862;9.188;2022-11-15T09:28:31;13.80;99.90
9209;DHT22;4639;48.862;9.188;2022-11-15T09:30:58;13.80;99.90
9209;DHT22;4639;48.862;9.188;2022-11-15T09:33:24;13.60;99.90
9209;DHT22;4639;48.862;9.188;2022-11-15T09:35:50;13.60;99.90
9209;DHT22;4639;48.862;9.188;2022-11-15T09:38:16;13.50;99.90
9209;DHT22;4639;48.862;9.188;2022-11-15T09:40:41;13.40;99.90
9209;DHT22;4639;48.862;9.188;2022-11-15T09:48:50;13.70;99.90
9209;DHT22;4639;48.862;9.188;2022-11-15T09:51:28;14.10;99.90
9209;DHT22;4639;48.862;9.188;2022-11-15T09:54:10;14.50;99.90
9209;DHT22;4639;48.862;9.188;2022-11-15T09:56:39;14.70;99.90
9209;DHT22;4639;48.862;9.188;2022-11-15T10:01:58;15.00;99.90
9209;DHT22;4639;48.862;9.188;2022-11-15T10:04:26;15.10;99.90
9209;DHT22;4639;48.862;9.188;2022-11-15T10:09:51;15.30;99.90
9209;DHT22;4639;48.862;9.188;2022-11-15T10:12:18;15.30;99.90
9209;DHT22;4639;48.862;9.188;2022-11-15T10:14:45;15.10;99.90
9209;DHT22;4639;48.862;9.188;2022-11-15T10:17:29;14.90;99.90
9209;DHT22;4639;48.862;9.188;2022-11-15T10:22:44;14.50;99.90
9209;DHT22;4639;48.862;9.188;2022-11-15T10:27:39;14.40;99.90
9209;DHT22;4639;48.862;9.188;2022-11-15T10:30:14;14.20;99.90
9209;DHT22;4639;48.862;9.188;2022-11-15T10:32:42;14.10;99.90
9209;DHT22;4639;48.862;9.188;2022-11-15T10:35:26;14.30;99.90
9209;DHT22;4639;48.862;9.188;2022-11-15T10:37:55;14.10;99.90
9209;DHT22;4639;48.862;9.188;2022-11-15T10:40:29;14.20;99.90
9209;DHT22;4639;48.862;9.188;2022-11-15T10:45:37;14.40;99.90
9209;DHT22;4639;48.862;9.188;2022-11-15T10:48:22;14.60;99.90
9209;DHT22;4639;48.862;9.188;2022-11-15T10:50:49;14.40;99.90
9209;DHT22;4639;48.862;9.188;2022-11-15T10:53:26;14.50;99.90
9209;DHT22;4639;48.862;9.188;2022-11-15T10:55:55;14.50;99.90
9209;DHT22;4639;48.862;9.188;2022-11-15T10:58:35;14.50;99.90
9209;DHT22;4639;48.862;9.188;2022-11-15T11:01:13;14.40;99.90
9209;DHT22;4639;48.862;9.188;2022-11-15T11:03:40;14.30;99.90
9209;DHT22;4639;48.862;9.188;2022-11-15T11:06:17;14.40;99.90
9209;DHT22;4639;48.862;9.188;2022-11-15T11:09:18;14.40;99.90
9209;DHT22;4639;48.862;9.188;2022-11-15T11:11:49;14.40;99.90
9209;DHT22;4639;48.862;9.188;2022-11-15T11:14:29;14.40;99.90
9209;DHT22;4639;48.862;9.188;2022-11-15T11:19:56;14.40;99.90
9209;DHT22;4639;48.862;9.188;2022-11-15T11:25:34;14.30;99.90
9209;DHT22;4639;48.862;9.188;2022-11-15T11:33:29;14.10;99.90
9209;DHT22;4639;48.862;9.188;2022-11-15T11:36:09;14.20;99.90
9209;DHT22;4639;48.862;9.188;2022-11-15T11:44:41;14.20;99.90
9209;DHT22;4639;48.862;9.188;2022-11-15T11:47:10;14.20;99.90
9209;DHT22;4639;48.862;9.188;2022-11-15T11:49:46;14.30;99.90
9209;DHT22;4639;48.862;9.188;2022-11-15T11:52:17;14.40;99.90
9209;DHT22;4639;48.862;9.188;2022-11-15T11:54:56;14.40;99.90
9209;DHT22;4639;48.862;9.188;2022-11-15T11:57:34;14.50;99.90
9209;DHT22;4639;48.862;9.188;2022-11-15T12:00:15;14.50;99.90
9209;DHT22;4639;48.862;9.188;2022-11-15T12:05:44;14.40;99.90
9209;DHT22;4639;48.862;9.188;2022-11-15T12:11:20;14.60;99.90
9209;DHT22;4639;48.862;9.188;2022-11-15T12:13:50;14.90;99.90
9209;DHT22;4639;48.862;9.188;2022-11-15T12:16:29;14.70;99.90
9209;DHT22;4639;48.862;9.188;2022-11-15T12:19:00;14.70;99.90
9209;DHT22;4639;48.862;9.188;2022-11-15T12:21:43;14.70;99.90
9209;DHT22;4639;48.862;9.188;2022-11-15T12:24:29;14.80;99.90
9209;DHT22;4639;48.862;9.188;2022-11-15T12:29:35;14.80;99.90
9209;DHT22;4639;48.862;9.188;2022-11-15T12:32:02;14.90;99.90
9209;DHT22;4639;48.862;9.188;2022-11-15T12:36:56;15.00;99.90
9209;DHT22;4639;48.862;9.188;2022-11-15T12:42:56;14.90;99.90
9209;DHT22;4639;48.862;9.188;2022-11-15T12:58:49;14.90;99.90
9209;DHT22;4639;48.862;9.188;2022-11-15T13:11:59;14.70;99.90
9209;DHT22;4639;48.862;9.188;2022-11-15T13:14:47;14.80;99.90
9209;DHT22;4639;48.862;9.188;2022-11-15T13:19:48;14.80;99.90
9209;DHT22;4639;48.862;9.188;2022-11-15T13:22:14;14.70;99.90
9209;DHT22;4639;48.862;9.188;2022-11-15T13:25:01;14.70;99.90
9209;DHT22;4639;48.862;9.188;2022-11-15T13:27:27;14.70;99.90
9209;DHT22;4639;48.862;9.188;2022-11-15T13:29:53;14.70;99.90
9209;DHT22;4639;48.862;9.188;2022-11-15T13:32:19;14.60;99.90
9209;DHT22;4639;48.862;9.188;2022-11-15T13:34:47;14.50;99.90
9209;DHT22;4639;48.862;9.188;2022-11-15T13:39:45;14.40;99.90
9209;DHT22;4639;48.862;9.188;2022-11-15T13:42:18;14.40;99.90
9209;DHT22;4639;48.862;9.188;2022-11-15T13:45:01;14.40;99.90
9209;DHT22;4639;48.862;9.188;2022-11-15T13:47:28;14.30;99.90
9209;DHT22;4639;48.862;9.188;2022-11-15T13:49:57;14.30;99.90
9209;DHT22;4639;48.862;9.188;2022-11-15T13:52:28;14.30;99.90
9209;DHT22;4639;48.862;9.188;2022-11-15T13:55:16;14.40;99.90
9209;DHT22;4639;48.862;9.188;2022-11-15T13:57:57;14.40;99.90
9209;DHT22;4639;48.862;9.188;2022-11-15T14:00:37;14.30;99.90
9209;DHT22;4639;48.862;9.188;2022-11-15T14:03:21;14.30;99.90
9209;DHT22;4639;48.862;9.188;2022-11-15T14:06:08;14.40;99.90
9209;DHT22;4639;48.862;9.188;2022-11-15T14:08:41;14.50;99.90
9209;DHT22;4639;48.862;9.188;2022-11-15T14:11:16;14.40;99.90
9209;DHT22;4639;48.862;9.188;2022-11-15T14:16:43;14.40;99.90
9209;DHT22;4639;48.862;9.188;2022-11-15T14:19:34;14.40;99.90
9209;DHT22;4639;48.862;9.188;2022-11-15T14:22:15;14.50;99.90
9209;DHT22;4639;48.862;9.188;2022-11-15T14:24:44;14.40;99.90
9209;DHT22;4639;48.862;9.188;2022-11-15T14:29:47;14.20;99.90
9209;DHT22;4639;48.862;9.188;2022-11-15T14:32:16;14.20;99.90
9209;DHT22;4639;48.862;9.188;2022-11-15T14:34:42;14.20;99.90
9209;DHT22;4639;48.862;9.188;2022-11-15T14:37:32;14.10;99.90
9209;DHT22;4639;48.862;9.188;2022-11-15T14:40:04;14.10;99.90
9209;DHT22;4639;48.862;9.188;2022-11-15T14:42:31;14.10;99.90
9209;DHT22;4639;48.862;9.188;2022-11-15T14:44:56;14.10;99.90
9209;DHT22;4639;48.862;9.188;2022-11-15T14:47:22;14.10;99.90
9209;DHT22;4639;48.862;9.188;2022-11-15T14:49:47;14.20;99.90
9209;DHT22;4639;48.862;9.188;2022-11-15T14:54:47;14.00;99.90
9209;DHT22;4639;48.862;9.188;2022-11-15T14:57:12;13.90;99.90
9209;DHT22;4639;48.862;9.188;2022-11-15T14:59:38;14.00;99.90
9209;DHT22;4639;48.862;9.188;2022-11-15T15:02:16;13.90;99.90
9209;DHT22;4639;48.862;9.188;2022-11-15T15:04:42;13.80;99.90
9209;DHT22;4639;48.862;9.188;2022-11-15T15:07:07;13.80;99.90
9209;DHT22;4639;48.862;9.188;2022-11-15T15:09:33;13.80;99.90
9209;DHT22;4639;48.862;9.188;2022-11-15T15:11:58;13.80;99.90
9209;DHT22;4639;48.862;9.188;2022-11-15T15:14:24;13.90;99.90
9209;DHT22;4639;48.862;9.188;2022-11-15T15:16:49;13.90;99.90
9209;DHT22;4639;48.862;9.188;2022-11-15T15:19:15;14.00;99.90
9209;DHT22;4639;48.862;9.188;2022-11-15T15:21:40;14.00;99.90
9209;DHT22;4639;48.862;9.188;2022-11-15T15:24:07;13.90;99.90
9209;DHT22;4639;48.862;9.188;2022-11-15T15:26:34;13.90;99.90
9209;DHT22;4639;48.862;9.188;2022-11-15T15:29:01;13.90;99.90
9209;DHT22;4639;48.862;9.188;2022-11-15T15:31:27;13.80;99.90
9209;DHT22;4639;48.862;9.188;2022-11-15T15:33:52;13.70;99.90
9209;DHT22;4639;48.862;9.188;2022-11-15T15:36:18;13.70;99.90
9209;DHT22;4639;48.862;9.188;2022-11-15T15:38:44;13.80;99.90
9209;DHT22;4639;48.862;9.188;2022-11-15T15:41:13;13.70;99.90
9209;DHT22;4639;48.862;9.188;2022-11-15T15:43:39;13.60;99.90
9209;DHT22;4639;48.862;9.188;2022-11-15T15:46:07;13.50;99.90
9209;DHT22;4639;48.862;9.188;2022-11-15T15:48:33;13.50;99.90
9209;DHT22;4639;48.862;9.188;2022-11-15T15:51:02;13.40;99.90
9209;DHT22;4639;48.862;9.188;2022-11-15T15:53:28;13.40;99.90
9209;DHT22;4639;48.862;9.188;2022-11-15T15:55:54;13.40;99.90
9209;DHT22;4639;48.862;9.188;2022-11-15T15:58:19;13.40;99.90
9209;DHT22;4639;48.862;9.188;2022-11-15T16:00:45;13.40;99.90
9209;DHT22;4639;48.862;9.188;2022-11-15T16:03:10;13.40;99.90
9209;DHT22;4639;48.862;9.188;2022-11-15T16:05:36;13.40;99.90
9209;DHT22;4639;48.862;9.188;2022-11-15T16:08:02;13.40;99.90
9209;DHT22;4639;48.862;9.188;2022-11-15T16:10:30;13.50;99.90
9209;DHT22;4639;48.862;9.188;2022-11-15T16:12:57;13.60;99.90
9209;DHT22;4639;48.862;9.188;2022-11-15T16:15:25;13.50;99.90
9209;DHT22;4639;48.862;9.188;2022-11-15T16:17:59;13.50;99.90
9209;DHT22;4639;48.862;9.188;2022-11-15T16:20:38;13.50;99.90
9209;DHT22;4639;48.862;9.188;2022-11-15T16:23:07;13.60;99.90
9209;DHT22;4639;48.862;9.188;2022-11-15T16:28:22;13.50;99.90
9209;DHT22;4639;48.862;9.188;2022-11-15T16:30:49;13.50;99.90
9209;DHT22;4639;48.862;9.188;2022-11-15T16:33:15;13.50;99.90
9209;DHT22;4639;48.862;9.188;2022-11-15T16:35:42;13.60;99.90
9209;DHT22;4639;48.862;9.188;2022-11-15T16:38:14;13.60;99.90
9209;DHT22;4639;48.862;9.188;2022-11-15T16:40:39;13.70;99.90
9209;DHT22;4639;48.862;9.188;2022-11-15T16:43:05;13.70;99.90
9209;DHT22;4639;48.862;9.188;2022-11-15T16:45:33;13.80;99.90
9209;DHT22;4639;48.862;9.188;2022-11-15T16:47:59;13.80;99.90
9209;DHT22;4639;48.862;9.188;2022-11-15T16:50:27;13.80;99.90
9209;DHT22;4639;48.862;9.188;2022-11-15T16:52:57;13.80;99.90
9209;DHT22;4639;48.862;9.188;2022-11-15T16:55:25;13.70;99.90
9209;DHT22;4639;48.862;9.188;2022-11-15T16:57:52;13.70;99.90
9209;DHT22;4639;48.862;9.188;2022-11-15T17:00:19;13.70;99.90
9209;DHT22;4639;48.862;9.188;2022-11-15T17:02:47;13.70;99.90
9209;DHT22;4639;48.862;9.188;2022-11-15T17:05:13;13.60;99.90
9209;DHT22;4639;48.862;9.188;2022-11-15T17:07:39;13.60;99.90
9209;DHT22;4639;48.862;9.188;2022-11-15T17:10:06;13.50;99.90
9209;DHT22;4639;48.862;9.188;2022-11-15T17:12:33;13.50;99.90
9209;DHT22;4639;48.862;9.188;2022-11-15T17:14:59;13.30;99.90
9209;DHT22;4639;48.862;9.188;2022-11-15T17:17:25;13.30;99.90
9209;DHT22;4639;48.862;9.188;2022-11-15T17:19:51;13.20;99.90
9209;DHT22;4639;48.862;9.188;2022-11-15T17:22:18;13.20;99.90
9209;DHT22;4639;48.862;9.188;2022-11-15T17:24:43;13.20;99.90
9209;DHT22;4639;48.862;9.188;2022-11-15T17:27:09;13.20;99.90
9209;DHT22;4639;48.862;9.188;2022-11-15T17:29:34;13.20;99.90
9209;DHT22;4639;48.862;9.188;2022-11-15T17:32:00;13.20;99.90
9209;DHT22;4639;48.862;9.188;2022-11-15T17:34:25;13.20;99.90
9209;DHT22;4639;48.862;9.188;2022-11-15T17:36:51;13.30;99.90
9209;DHT22;4639;48.862;9.188;2022-11-15T17:39:16;13.40;99.90
9209;DHT22;4639;48.862;9.188;2022-11-15T17:41:45;13.30;99.90
9209;DHT22;4639;48.862;9.188;2022-11-15T17:44:11;13.40;99.90
9209;DHT22;4639;48.862;9.188;2022-11-15T17:46:43;13.40;99.90
9209;DHT22;4639;48.862;9.188;2022-11-15T17:49:09;13.40;99.90
9209;DHT22;4639;48.862;9.188;2022-11-15T17:51:35;13.50;99.90
9209;DHT22;4639;48.862;9.188;2022-11-15T17:54:01;13.60;99.90
9209;DHT22;4639;48.862;9.188;2022-11-15T17:56:27;13.60;99.90
9209;DHT22;4639;48.862;9.188;2022-11-15T17:58:57;13.80;99.90
9209;DHT22;4639;48.862;9.188;2022-11-15T18:01:24;13.60;99.90
9209;DHT22;4639;48.862;9.188;2022-11-15T18:03:51;13.60;99.90
9209;DHT22;4639;48.862;9.188;2022-11-15T18:06:18;13.70;99.90
9209;DHT22;4639;48.862;9.188;2022-11-15T18:08:45;13.70;99.90
9209;DHT22;4639;48.862;9.188;2022-11-15T18:13:44;13.70;99.90
9209;DHT22;4639;48.862;9.188;2022-11-15T18:16:15;13.90;99.90
9209;DHT22;4639;48.862;9.188;2022-11-15T18:18:41;13.60;99.90
9209;DHT22;4639;48.862;9.188;2022-11-15T18:21:26;13.60;99.90
9209;DHT22;4639;48.862;9.188;2022-11-15T18:23:53;13.50;99.90
9209;DHT22;4639;48.862;9.188;2022-11-15T18:26:20;13.40;99.90